sensor_id;sensor_type;location;lat;lon;timestamp;P1;durP1;ratioP1;P2;durP2;ratioP2
45254;SDS011;30989;52.078;21.014;2023-02-22T00:00:17;18.40;;;4.20;;
45254;SDS011;30989;52.078;21.014;2023-02-22T00:02:47;25.17;;;4.93;;
45254;SDS011;30989;52.078;21.014;2023-02-22T00:05:14;15.40;;;3.80;;
45254;SDS011;30989;52.078;21.014;2023-02-22T00:07:47;10.32;;;3.55;;
45254;SDS011;30989;52.078;21.014;2023-02-22T00:10:16;19.70;;;4.55;;
45254;SDS011;30989;52.078;21.014;2023-02-22T00:12:45;13.13;;;2.95;;
45254;SDS011;30989;52.078;21.014;2023-02-22T00:15:13;17.77;;;3.92;;
45254;SDS011;30989;52.078;21.014;2023-02-22T00:17:40;14.30;;;3.35;;
45254;SDS011;30989;52.078;21.014;2023-02-22T00:20:06;11.15;;;3.97;;
45254;SDS011;30989;52.078;21.014;2023-02-22T00:22:34;14.93;;;3.83;;
45254;SDS011;30989;52.078;21.014;2023-02-22T00:24:59;14.77;;;3.97;;
45254;SDS011;30989;52.078;21.014;2023-02-22T00:27:25;8.20;;;2.45;;
45254;SDS011;30989;52.078;21.014;2023-02-22T00:29:51;16.63;;;3.97;;
45254;SDS011;30989;52.078;21.014;2023-02-22T00:32:16;11.50;;;3.00;;
45254;SDS011;30989;52.078;21.014;2023-02-22T00:34:41;14.52;;;4.72;;
45254;SDS011;30989;52.078;21.014;2023-02-22T00:37:09;17.55;;;3.47;;
45254;SDS011;30989;52.078;21.014;2023-02-22T00:39:35;13.43;;;3.17;;
45254;SDS011;30989;52.078;21.014;2023-02-22T00:42:01;7.28;;;2.78;;
45254;SDS011;30989;52.078;21.014;2023-02-22T00:44:28;10.23;;;3.28;;
45254;SDS011;30989;52.078;21.014;2023-02-22T00:46:53;14.50;;;4.57;;
45254;SDS011;30989;52.078;21.014;2023-02-22T00:49:20;10.27;;;2.83;;
45254;SDS011;30989;52.078;21.014;2023-02-22T00:51:48;12.63;;;3.03;;
45254;SDS011;30989;52.078;21.014;2023-02-22T00:54:13;7.45;;;2.60;;
45254;SDS011;30989;52.078;21.014;2023-02-22T00:56:41;10.90;;;3.22;;
45254;SDS011;30989;52.078;21.014;2023-02-22T00:59:06;14.93;;;2.53;;
45254;SDS011;30989;52.078;21.014;2023-02-22T01:01:32;16.83;;;3.45;;
45254;SDS011;30989;52.078;21.014;2023-02-22T01:03:57;13.45;;;3.70;;
45254;SDS011;30989;52.078;21.014;2023-02-22T01:06:23;14.80;;;4.15;;
45254;SDS011;30989;52.078;21.014;2023-02-22T01:08:49;15.95;;;3.83;;
45254;SDS011;30989;52.078;21.014;2023-02-22T01:11:15;17.10;;;4.40;;
45254;SDS011;30989;52.078;21.014;2023-02-22T01:13:41;19.45;;;4.80;;
45254;SDS011;30989;52.078;21.014;2023-02-22T01:16:09;18.65;;;3.47;;
45254;SDS011;30989;52.078;21.014;2023-02-22T01:18:35;16.85;;;4.43;;
45254;SDS011;30989;52.078;21.014;2023-02-22T01:21:01;28.17;;;5.30;;
45254;SDS011;30989;52.078;21.014;2023-02-22T01:23:28;16.27;;;5.43;;
45254;SDS011;30989;52.078;21.014;2023-02-22T01:25:56;21.23;;;4.80;;
45254;SDS011;30989;52.078;21.014;2023-02-22T01:28:22;15.20;;;4.40;;
45254;SDS011;30989;52.078;21.014;2023-02-22T01:30:48;23.20;;;3.92;;
45254;SDS011;30989;52.078;21.014;2023-02-22T01:33:15;21.83;;;4.47;;
45254;SDS011;30989;52.078;21.014;2023-02-22T01:35:41;17.63;;;3.90;;
45254;SDS011;30989;52.078;21.014;2023-02-22T01:38:10;25.75;;;5.57;;
45254;SDS011;30989;52.078;21.014;2023-02-22T01:40:38;16.17;;;4.60;;
45254;SDS011;30989;52.078;21.014;2023-02-22T01:43:15;14.50;;;4.15;;
45254;SDS011;30989;52.078;21.014;2023-02-22T01:46:03;15.88;;;4.20;;
45254;SDS011;30989;52.078;21.014;2023-02-22T01:53:46;27.02;;;4.95;;
45254;SDS011;30989;52.078;21.014;2023-02-22T01:56:15;16.02;;;4.18;;
45254;SDS011;30989;52.078;21.014;2023-02-22T01:58:44;14.45;;;4.05;;
45254;SDS011;30989;52.078;21.014;2023-02-22T02:01:13;14.27;;;3.80;;
45254;SDS011;30989;52.078;21.014;2023-02-22T02:03:40;17.08;;;4.78;;
45254;SDS011;30989;52.078;21.014;2023-02-22T02:06:07;11.77;;;3.63;;
45254;SDS011;30989;52.078;21.014;2023-02-22T02:11:39;19.23;;;3.80;;
45254;SDS011;30989;52.078;21.014;2023-02-22T02:14:06;14.68;;;3.72;;
45254;SDS011;30989;52.078;21.014;2023-02-22T02:16:38;14.82;;;3.60;;
45254;SDS011;30989;52.078;21.014;2023-02-22T02:19:10;17.48;;;3.17;;
45254;SDS011;30989;52.078;21.014;2023-02-22T02:37:52;20.35;;;4.03;;
45254;SDS011;30989;52.078;21.014;2023-02-22T02:40:25;20.05;;;2.95;;
45254;SDS011;30989;52.078;21.014;2023-02-22T02:43:03;12.77;;;2.80;;
45254;SDS011;30989;52.078;21.014;2023-02-22T02:48:14;13.48;;;3.45;;
45254;SDS011;30989;52.078;21.014;2023-02-22T02:50:46;14.32;;;3.15;;
45254;SDS011;30989;52.078;21.014;2023-02-22T02:53:14;17.10;;;3.17;;
45254;SDS011;30989;52.078;21.014;2023-02-22T02:55:44;4.75;;;2.42;;
45254;SDS011;30989;52.078;21.014;2023-02-22T02:58:15;18.30;;;5.13;;
45254;SDS011;30989;52.078;21.014;2023-02-22T03:00:43;13.00;;;2.75;;
45254;SDS011;30989;52.078;21.014;2023-02-22T03:03:26;10.93;;;2.90;;
45254;SDS011;30989;52.078;21.014;2023-02-22T03:06:19;14.88;;;3.97;;
45254;SDS011;30989;52.078;21.014;2023-02-22T03:09:14;15.48;;;3.50;;
45254;SDS011;30989;52.078;21.014;2023-02-22T03:12:30;13.18;;;3.38;;
45254;SDS011;30989;52.078;21.014;2023-02-22T03:18:04;8.70;;;3.33;;
45254;SDS011;30989;52.078;21.014;2023-02-22T03:20:40;14.63;;;2.45;;
45254;SDS011;30989;52.078;21.014;2023-02-22T03:23:27;12.10;;;3.20;;
45254;SDS011;30989;52.078;21.014;2023-02-22T03:26:10;11.13;;;2.92;;
45254;SDS011;30989;52.078;21.014;2023-02-22T03:28:40;18.27;;;4.15;;
45254;SDS011;30989;52.078;21.014;2023-02-22T03:31:11;8.43;;;2.47;;
45254;SDS011;30989;52.078;21.014;2023-02-22T03:33:47;12.52;;;3.40;;
45254;SDS011;30989;52.078;21.014;2023-02-22T03:36:27;19.08;;;3.63;;
45254;SDS011;30989;52.078;21.014;2023-02-22T03:38:57;17.48;;;4.68;;
45254;SDS011;30989;52.078;21.014;2023-02-22T03:41:25;10.68;;;3.28;;
45254;SDS011;30989;52.078;21.014;2023-02-22T03:43:54;14.82;;;3.75;;
45254;SDS011;30989;52.078;21.014;2023-02-22T03:49:08;13.45;;;3.05;;
45254;SDS011;30989;52.078;21.014;2023-02-22T03:51:37;10.13;;;3.17;;
45254;SDS011;30989;52.078;21.014;2023-02-22T03:54:04;11.55;;;3.85;;
45254;SDS011;30989;52.078;21.014;2023-02-22T03:56:38;18.00;;;4.63;;
45254;SDS011;30989;52.078;21.014;2023-02-22T03:59:19;20.00;;;3.92;;
45254;SDS011;30989;52.078;21.014;2023-02-22T04:04:17;11.18;;;3.47;;
45254;SDS011;30989;52.078;21.014;2023-02-22T04:06:43;12.25;;;3.75;;
45254;SDS011;30989;52.078;21.014;2023-02-22T04:09:11;13.10;;;3.30;;
45254;SDS011;30989;52.078;21.014;2023-02-22T04:11:36;9.88;;;3.90;;
45254;SDS011;30989;52.078;21.014;2023-02-22T04:14:02;16.42;;;4.45;;
45254;SDS011;30989;52.078;21.014;2023-02-22T04:16:28;12.88;;;3.50;;
45254;SDS011;30989;52.078;21.014;2023-02-22T04:18:54;10.90;;;2.53;;
45254;SDS011;30989;52.078;21.014;2023-02-22T04:21:19;13.43;;;3.25;;
45254;SDS011;30989;52.078;21.014;2023-02-22T04:23:47;11.10;;;3.50;;
45254;SDS011;30989;52.078;21.014;2023-02-22T04:26:13;15.80;;;3.78;;
45254;SDS011;30989;52.078;21.014;2023-02-22T04:28:38;14.48;;;3.60;;
45254;SDS011;30989;52.078;21.014;2023-02-22T04:31:08;12.88;;;3.13;;
45254;SDS011;30989;52.078;21.014;2023-02-22T04:33:34;10.55;;;3.30;;
45254;SDS011;30989;52.078;21.014;2023-02-22T04:35:59;12.60;;;4.45;;
45254;SDS011;30989;52.078;21.014;2023-02-22T04:38:27;13.05;;;3.67;;
45254;SDS011;30989;52.078;21.014;2023-02-22T04:40:55;14.35;;;3.47;;
45254;SDS011;30989;52.078;21.014;2023-02-22T04:43:21;13.48;;;3.40;;
45254;SDS011;30989;52.078;21.014;2023-02-22T04:45:49;11.00;;;3.70;;
45254;SDS011;30989;52.078;21.014;2023-02-22T04:48:14;10.57;;;3.20;;
45254;SDS011;30989;52.078;21.014;2023-02-22T04:50:40;10.68;;;3.13;;
45254;SDS011;30989;52.078;21.014;2023-02-22T04:53:06;10.07;;;3.90;;
45254;SDS011;30989;52.078;21.014;2023-02-22T04:55:34;12.70;;;4.00;;
45254;SDS011;30989;52.078;21.014;2023-02-22T04:58:00;14.23;;;3.63;;
45254;SDS011;30989;52.078;21.014;2023-02-22T05:00:25;15.45;;;3.38;;
45254;SDS011;30989;52.078;21.014;2023-02-22T05:02:55;7.25;;;2.88;;
45254;SDS011;30989;52.078;21.014;2023-02-22T05:05:21;12.80;;;3.15;;
45254;SDS011;30989;52.078;21.014;2023-02-22T05:07:47;8.40;;;3.67;;
45254;SDS011;30989;52.078;21.014;2023-02-22T05:10:14;11.32;;;3.45;;
45254;SDS011;30989;52.078;21.014;2023-02-22T05:12:39;4.95;;;2.40;;
45254;SDS011;30989;52.078;21.014;2023-02-22T05:15:06;5.10;;;2.40;;
45254;SDS011;30989;52.078;21.014;2023-02-22T05:17:32;5.65;;;2.25;;
45254;SDS011;30989;52.078;21.014;2023-02-22T05:19:59;5.47;;;1.80;;
45254;SDS011;30989;52.078;21.014;2023-02-22T05:22:25;5.90;;;1.50;;
45254;SDS011;30989;52.078;21.014;2023-02-22T05:24:50;5.05;;;1.60;;
45254;SDS011;30989;52.078;21.014;2023-02-22T05:27:19;2.30;;;1.13;;
45254;SDS011;30989;52.078;21.014;2023-02-22T05:29:45;7.15;;;1.90;;
45254;SDS011;30989;52.078;21.014;2023-02-22T05:32:11;4.25;;;1.92;;
45254;SDS011;30989;52.078;21.014;2023-02-22T05:34:37;3.47;;;1.30;;
45254;SDS011;30989;52.078;21.014;2023-02-22T05:37:03;6.18;;;1.95;;
45254;SDS011;30989;52.078;21.014;2023-02-22T05:39:29;9.65;;;2.55;;
45254;SDS011;30989;52.078;21.014;2023-02-22T05:41:54;3.28;;;1.60;;
45254;SDS011;30989;52.078;21.014;2023-02-22T05:44:20;5.30;;;1.60;;
45254;SDS011;30989;52.078;21.014;2023-02-22T05:46:46;3.55;;;1.70;;
45254;SDS011;30989;52.078;21.014;2023-02-22T05:49:11;5.43;;;2.10;;
45254;SDS011;30989;52.078;21.014;2023-02-22T05:51:37;3.63;;;1.60;;
45254;SDS011;30989;52.078;21.014;2023-02-22T05:54:02;4.65;;;1.42;;
45254;SDS011;30989;52.078;21.014;2023-02-22T05:56:28;5.18;;;1.65;;
45254;SDS011;30989;52.078;21.014;2023-02-22T05:58:55;5.35;;;2.10;;
45254;SDS011;30989;52.078;21.014;2023-02-22T06:01:21;4.43;;;1.58;;
45254;SDS011;30989;52.078;21.014;2023-02-22T06:03:50;2.80;;;1.30;;
45254;SDS011;30989;52.078;21.014;2023-02-22T06:06:17;6.50;;;1.65;;
45254;SDS011;30989;52.078;21.014;2023-02-22T06:08:44;3.58;;;1.63;;
45254;SDS011;30989;52.078;21.014;2023-02-22T06:11:13;3.28;;;1.70;;
45254;SDS011;30989;52.078;21.014;2023-02-22T06:13:48;4.53;;;1.80;;
45254;SDS011;30989;52.078;21.014;2023-02-22T06:16:15;4.40;;;2.10;;
45254;SDS011;30989;52.078;21.014;2023-02-22T06:18:40;3.42;;;1.58;;
45254;SDS011;30989;52.078;21.014;2023-02-22T06:21:06;4.30;;;1.75;;
45254;SDS011;30989;52.078;21.014;2023-02-22T06:23:32;3.63;;;1.40;;
45254;SDS011;30989;52.078;21.014;2023-02-22T06:25:58;3.60;;;1.92;;
45254;SDS011;30989;52.078;21.014;2023-02-22T06:28:23;5.07;;;1.92;;
45254;SDS011;30989;52.078;21.014;2023-02-22T06:30:50;4.38;;;1.80;;
45254;SDS011;30989;52.078;21.014;2023-02-22T06:33:16;7.15;;;2.15;;
45254;SDS011;30989;52.078;21.014;2023-02-22T06:35:41;8.73;;;2.45;;
45254;SDS011;30989;52.078;21.014;2023-02-22T06:38:07;4.72;;;2.28;;
45254;SDS011;30989;52.078;21.014;2023-02-22T06:40:32;5.55;;;2.45;;
45254;SDS011;30989;52.078;21.014;2023-02-22T06:42:58;4.88;;;2.03;;
45254;SDS011;30989;52.078;21.014;2023-02-22T06:45:24;5.82;;;2.92;;
45254;SDS011;30989;52.078;21.014;2023-02-22T06:47:49;6.25;;;2.47;;
45254;SDS011;30989;52.078;21.014;2023-02-22T06:50:22;10.80;;;2.97;;
45254;SDS011;30989;52.078;21.014;2023-02-22T06:52:50;5.65;;;3.22;;
45254;SDS011;30989;52.078;21.014;2023-02-22T06:55:20;5.00;;;2.30;;
45254;SDS011;30989;52.078;21.014;2023-02-22T06:57:48;7.65;;;2.92;;
45254;SDS011;30989;52.078;21.014;2023-02-22T07:00:14;10.63;;;3.17;;
45254;SDS011;30989;52.078;21.014;2023-02-22T07:02:43;6.10;;;2.83;;
45254;SDS011;30989;52.078;21.014;2023-02-22T07:05:09;5.93;;;2.47;;
45254;SDS011;30989;52.078;21.014;2023-02-22T07:07:37;6.90;;;2.40;;
45254;SDS011;30989;52.078;21.014;2023-02-22T07:10:04;4.47;;;2.05;;
45254;SDS011;30989;52.078;21.014;2023-02-22T07:12:32;3.47;;;2.00;;
45254;SDS011;30989;52.078;21.014;2023-02-22T07:14:58;3.35;;;1.58;;
45254;SDS011;30989;52.078;21.014;2023-02-22T07:17:23;3.78;;;1.70;;
45254;SDS011;30989;52.078;21.014;2023-02-22T07:19:49;4.45;;;2.00;;
45254;SDS011;30989;52.078;21.014;2023-02-22T07:22:14;5.07;;;1.67;;
45254;SDS011;30989;52.078;21.014;2023-02-22T07:24:41;3.72;;;1.40;;
45254;SDS011;30989;52.078;21.014;2023-02-22T07:27:07;3.60;;;1.38;;
45254;SDS011;30989;52.078;21.014;2023-02-22T07:29:32;2.65;;;1.10;;
45254;SDS011;30989;52.078;21.014;2023-02-22T07:32:00;2.78;;;1.25;;
45254;SDS011;30989;52.078;21.014;2023-02-22T07:34:26;2.65;;;1.50;;
45254;SDS011;30989;52.078;21.014;2023-02-22T07:36:52;5.47;;;1.25;;
45254;SDS011;30989;52.078;21.014;2023-02-22T07:39:17;4.18;;;1.15;;
45254;SDS011;30989;52.078;21.014;2023-02-22T07:41:43;4.72;;;1.73;;
45254;SDS011;30989;52.078;21.014;2023-02-22T07:44:20;4.78;;;1.42;;
45254;SDS011;30989;52.078;21.014;2023-02-22T07:46:46;6.13;;;1.67;;
45254;SDS011;30989;52.078;21.014;2023-02-22T07:49:13;2.05;;;1.08;;
45254;SDS011;30989;52.078;21.014;2023-02-22T07:51:39;3.50;;;1.70;;
45254;SDS011;30989;52.078;21.014;2023-02-22T07:54:04;3.60;;;1.50;;
45254;SDS011;30989;52.078;21.014;2023-02-22T07:56:30;5.40;;;1.67;;
45254;SDS011;30989;52.078;21.014;2023-02-22T07:58:55;6.45;;;2.10;;
45254;SDS011;30989;52.078;21.014;2023-02-22T08:01:20;5.68;;;2.22;;
45254;SDS011;30989;52.078;21.014;2023-02-22T08:03:46;3.88;;;1.30;;
45254;SDS011;30989;52.078;21.014;2023-02-22T08:06:12;3.33;;;1.27;;
45254;SDS011;30989;52.078;21.014;2023-02-22T08:08:37;3.72;;;1.80;;
45254;SDS011;30989;52.078;21.014;2023-02-22T08:11:03;2.33;;;1.30;;
45254;SDS011;30989;52.078;21.014;2023-02-22T08:13:29;3.25;;;1.13;;
45254;SDS011;30989;52.078;21.014;2023-02-22T08:15:55;3.90;;;1.60;;
45254;SDS011;30989;52.078;21.014;2023-02-22T08:18:21;5.13;;;1.60;;
45254;SDS011;30989;52.078;21.014;2023-02-22T08:20:47;3.40;;;1.30;;
45254;SDS011;30989;52.078;21.014;2023-02-22T08:23:16;3.45;;;1.55;;
45254;SDS011;30989;52.078;21.014;2023-02-22T08:25:43;3.70;;;1.63;;
45254;SDS011;30989;52.078;21.014;2023-02-22T08:28:12;3.38;;;1.42;;
45254;SDS011;30989;52.078;21.014;2023-02-22T08:30:39;2.45;;;1.33;;
45254;SDS011;30989;52.078;21.014;2023-02-22T08:33:07;6.50;;;2.03;;
45254;SDS011;30989;52.078;21.014;2023-02-22T08:35:34;4.05;;;1.73;;
45254;SDS011;30989;52.078;21.014;2023-02-22T08:38:01;5.03;;;1.88;;
45254;SDS011;30989;52.078;21.014;2023-02-22T08:40:30;4.03;;;1.80;;
45254;SDS011;30989;52.078;21.014;2023-02-22T08:42:57;2.55;;;1.20;;
45254;SDS011;30989;52.078;21.014;2023-02-22T08:45:23;2.88;;;1.40;;
45254;SDS011;30989;52.078;21.014;2023-02-22T08:47:49;5.03;;;1.40;;
45254;SDS011;30989;52.078;21.014;2023-02-22T08:50:16;3.35;;;1.50;;
45254;SDS011;30989;52.078;21.014;2023-02-22T08:52:50;5.35;;;1.73;;
45254;SDS011;30989;52.078;21.014;2023-02-22T08:55:23;5.40;;;1.80;;
45254;SDS011;30989;52.078;21.014;2023-02-22T09:00:18;7.95;;;2.10;;
45254;SDS011;30989;52.078;21.014;2023-02-22T09:02:45;6.43;;;1.50;;
45254;SDS011;30989;52.078;21.014;2023-02-22T09:05:10;3.60;;;1.63;;
45254;SDS011;30989;52.078;21.014;2023-02-22T09:07:36;3.15;;;1.27;;
45254;SDS011;30989;52.078;21.014;2023-02-22T09:10:01;3.25;;;1.25;;
45254;SDS011;30989;52.078;21.014;2023-02-22T09:12:27;6.75;;;1.73;;
45254;SDS011;30989;52.078;21.014;2023-02-22T09:14:52;5.07;;;1.77;;
45254;SDS011;30989;52.078;21.014;2023-02-22T09:17:18;4.65;;;1.75;;
45254;SDS011;30989;52.078;21.014;2023-02-22T09:19:43;3.97;;;1.83;;
45254;SDS011;30989;52.078;21.014;2023-02-22T09:22:09;11.90;;;1.52;;
45254;SDS011;30989;52.078;21.014;2023-02-22T09:24:35;2.97;;;1.67;;
45254;SDS011;30989;52.078;21.014;2023-02-22T09:27:00;5.55;;;1.75;;
45254;SDS011;30989;52.078;21.014;2023-02-22T09:29:28;4.65;;;1.50;;
45254;SDS011;30989;52.078;21.014;2023-02-22T09:31:54;6.13;;;1.95;;
45254;SDS011;30989;52.078;21.014;2023-02-22T09:34:21;3.65;;;1.95;;
45254;SDS011;30989;52.078;21.014;2023-02-22T09:36:54;5.10;;;2.45;;
45254;SDS011;30989;52.078;21.014;2023-02-22T09:39:22;3.78;;;1.80;;
45254;SDS011;30989;52.078;21.014;2023-02-22T09:47:19;6.93;;;1.92;;
45254;SDS011;30989;52.078;21.014;2023-02-22T09:50:01;6.65;;;2.20;;
45254;SDS011;30989;52.078;21.014;2023-02-22T09:52:29;5.25;;;1.63;;
45254;SDS011;30989;52.078;21.014;2023-02-22T09:55:08;9.30;;;2.22;;
45254;SDS011;30989;52.078;21.014;2023-02-22T09:57:44;4.85;;;1.83;;
45254;SDS011;30989;52.078;21.014;2023-02-22T10:00:17;4.55;;;1.80;;
45254;SDS011;30989;52.078;21.014;2023-02-22T10:02:56;6.30;;;2.58;;
45254;SDS011;30989;52.078;21.014;2023-02-22T10:05:28;6.25;;;2.20;;
45254;SDS011;30989;52.078;21.014;2023-02-22T10:07:59;4.72;;;2.30;;
45254;SDS011;30989;52.078;21.014;2023-02-22T10:10:37;3.72;;;1.60;;
45254;SDS011;30989;52.078;21.014;2023-02-22T10:13:09;6.72;;;1.70;;
45254;SDS011;30989;52.078;21.014;2023-02-22T10:18:34;6.25;;;2.03;;
45254;SDS011;30989;52.078;21.014;2023-02-22T10:21:01;3.63;;;1.67;;
45254;SDS011;30989;52.078;21.014;2023-02-22T10:23:39;4.10;;;1.65;;
45254;SDS011;30989;52.078;21.014;2023-02-22T10:26:15;3.95;;;1.63;;
45254;SDS011;30989;52.078;21.014;2023-02-22T10:28:55;3.55;;;1.58;;
45254;SDS011;30989;52.078;21.014;2023-02-22T10:31:29;4.88;;;1.95;;
45254;SDS011;30989;52.078;21.014;2023-02-22T10:33:59;4.90;;;2.05;;
45254;SDS011;30989;52.078;21.014;2023-02-22T10:36:26;7.80;;;1.90;;
45254;SDS011;30989;52.078;21.014;2023-02-22T10:38:54;5.10;;;1.90;;
45254;SDS011;30989;52.078;21.014;2023-02-22T10:41:28;5.40;;;2.10;;
45254;SDS011;30989;52.078;21.014;2023-02-22T10:43:55;5.35;;;2.20;;
45254;SDS011;30989;52.078;21.014;2023-02-22T10:46:21;4.55;;;2.10;;
45254;SDS011;30989;52.078;21.014;2023-02-22T10:48:50;4.68;;;2.10;;
45254;SDS011;30989;52.078;21.014;2023-02-22T10:51:18;4.93;;;2.38;;
45254;SDS011;30989;52.078;21.014;2023-02-22T10:53:44;8.77;;;3.58;;
45254;SDS011;30989;52.078;21.014;2023-02-22T10:56:21;12.25;;;3.22;;
45254;SDS011;30989;52.078;21.014;2023-02-22T10:58:58;6.50;;;2.63;;
45254;SDS011;30989;52.078;21.014;2023-02-22T11:04:00;5.30;;;2.50;;
45254;SDS011;30989;52.078;21.014;2023-02-22T11:06:42;6.30;;;2.72;;
45254;SDS011;30989;52.078;21.014;2023-02-22T11:09:16;6.82;;;3.25;;
45254;SDS011;30989;52.078;21.014;2023-02-22T11:11:46;7.32;;;2.65;;
45254;SDS011;30989;52.078;21.014;2023-02-22T11:14:23;5.80;;;2.60;;
45254;SDS011;30989;52.078;21.014;2023-02-22T11:16:54;10.02;;;3.10;;
45254;SDS011;30989;52.078;21.014;2023-02-22T11:19:22;10.30;;;4.13;;
45254;SDS011;30989;52.078;21.014;2023-02-22T11:21:57;11.90;;;4.53;;
45254;SDS011;30989;52.078;21.014;2023-02-22T11:24:40;9.13;;;3.53;;
45254;SDS011;30989;52.078;21.014;2023-02-22T11:33:31;7.75;;;4.03;;
45254;SDS011;30989;52.078;21.014;2023-02-22T11:35:50;10.82;;;3.55;;
45254;SDS011;30989;52.078;21.014;2023-02-22T11:38:23;12.87;;;4.83;;
45254;SDS011;30989;52.078;21.014;2023-02-22T11:43:43;9.03;;;3.83;;
45254;SDS011;30989;52.078;21.014;2023-02-22T11:48:38;9.45;;;3.10;;
45254;SDS011;30989;52.078;21.014;2023-02-22T11:56:50;9.18;;;3.53;;
45254;SDS011;30989;52.078;21.014;2023-02-22T12:02:23;7.18;;;3.13;;
45254;SDS011;30989;52.078;21.014;2023-02-22T12:07:45;6.28;;;3.20;;
45254;SDS011;30989;52.078;21.014;2023-02-22T12:10:43;6.40;;;3.40;;
45254;SDS011;30989;52.078;21.014;2023-02-22T12:18:41;10.02;;;2.85;;
45254;SDS011;30989;52.078;21.014;2023-02-22T12:21:12;5.45;;;2.70;;
45254;SDS011;30989;52.078;21.014;2023-02-22T12:23:53;6.53;;;2.55;;
45254;SDS011;30989;52.078;21.014;2023-02-22T12:29:10;5.32;;;2.47;;
45254;SDS011;30989;52.078;21.014;2023-02-22T12:31:50;8.63;;;3.13;;
45254;SDS011;30989;52.078;21.014;2023-02-22T12:40:06;7.93;;;3.40;;
45254;SDS011;30989;52.078;21.014;2023-02-22T12:48:18;9.27;;;4.00;;
45254;SDS011;30989;52.078;21.014;2023-02-22T12:50:53;10.85;;;3.35;;
45254;SDS011;30989;52.078;21.014;2023-02-22T12:53:34;8.70;;;3.70;;
45254;SDS011;30989;52.078;21.014;2023-02-22T12:56:19;5.63;;;2.70;;
45254;SDS011;30989;52.078;21.014;2023-02-22T13:01:37;5.90;;;2.67;;
45254;SDS011;30989;52.078;21.014;2023-02-22T13:04:06;7.75;;;3.50;;
45254;SDS011;30989;52.078;21.014;2023-02-22T13:12:06;6.25;;;2.92;;
45254;SDS011;30989;52.078;21.014;2023-02-22T13:22:43;7.60;;;3.75;;
45254;SDS011;30989;52.078;21.014;2023-02-22T13:25:19;6.65;;;2.42;;
45254;SDS011;30989;52.078;21.014;2023-02-22T13:27:56;11.13;;;3.00;;
45254;SDS011;30989;52.078;21.014;2023-02-22T13:30:33;8.43;;;3.13;;
45254;SDS011;30989;52.078;21.014;2023-02-22T13:44:15;7.82;;;3.30;;
45254;SDS011;30989;52.078;21.014;2023-02-22T13:50:14;7.07;;;3.05;;
45254;SDS011;30989;52.078;21.014;2023-02-22T13:52:50;9.07;;;4.13;;
45254;SDS011;30989;52.078;21.014;2023-02-22T13:55:23;8.45;;;3.25;;
45254;SDS011;30989;52.078;21.014;2023-02-22T13:58:04;7.28;;;3.05;;
45254;SDS011;30989;52.078;21.014;2023-02-22T14:00:47;8.75;;;4.15;;
45254;SDS011;30989;52.078;21.014;2023-02-22T14:08:04;9.40;;;3.55;;
45254;SDS011;30989;52.078;21.014;2023-02-22T14:13:06;6.43;;;2.58;;
45254;SDS011;30989;52.078;21.014;2023-02-22T14:15:31;8.07;;;3.20;;
45254;SDS011;30989;52.078;21.014;2023-02-22T14:18:02;7.63;;;3.45;;
45254;SDS011;30989;52.078;21.014;2023-02-22T14:20:29;6.22;;;2.70;;
45254;SDS011;30989;52.078;21.014;2023-02-22T14:26:08;6.22;;;3.03;;
45254;SDS011;30989;52.078;21.014;2023-02-22T14:28:49;6.20;;;2.75;;
45254;SDS011;30989;52.078;21.014;2023-02-22T14:31:21;6.72;;;3.22;;
45254;SDS011;30989;52.078;21.014;2023-02-22T14:33:56;8.48;;;2.92;;
45254;SDS011;30989;52.078;21.014;2023-02-22T14:42:03;6.00;;;2.72;;
45254;SDS011;30989;52.078;21.014;2023-02-22T14:44:33;7.90;;;2.97;;
45254;SDS011;30989;52.078;21.014;2023-02-22T14:47:05;11.48;;;3.10;;
45254;SDS011;30989;52.078;21.014;2023-02-22T14:49:35;8.52;;;3.40;;
45254;SDS011;30989;52.078;21.014;2023-02-22T14:52:10;6.55;;;2.72;;
45254;SDS011;30989;52.078;21.014;2023-02-22T14:54:54;7.45;;;2.70;;
45254;SDS011;30989;52.078;21.014;2023-02-22T14:57:39;6.50;;;2.70;;
45254;SDS011;30989;52.078;21.014;2023-02-22T15:00:19;7.65;;;3.40;;
45254;SDS011;30989;52.078;21.014;2023-02-22T15:02:54;14.85;;;4.05;;
45254;SDS011;30989;52.078;21.014;2023-02-22T15:05:23;7.65;;;3.15;;
45254;SDS011;30989;52.078;21.014;2023-02-22T15:07:58;8.80;;;2.50;;
45254;SDS011;30989;52.078;21.014;2023-02-22T15:10:30;9.77;;;3.75;;
45254;SDS011;30989;52.078;21.014;2023-02-22T15:13:04;10.40;;;3.35;;
45254;SDS011;30989;52.078;21.014;2023-02-22T15:15:41;6.72;;;2.65;;
45254;SDS011;30989;52.078;21.014;2023-02-22T15:18:13;5.68;;;2.22;;
45254;SDS011;30989;52.078;21.014;2023-02-22T15:20:43;11.43;;;3.20;;
45254;SDS011;30989;52.078;21.014;2023-02-22T15:23:13;6.75;;;2.92;;
45254;SDS011;30989;52.078;21.014;2023-02-22T15:25:40;10.13;;;3.55;;
45254;SDS011;30989;52.078;21.014;2023-02-22T15:28:12;11.52;;;3.28;;
45254;SDS011;30989;52.078;21.014;2023-02-22T15:30:39;6.78;;;2.83;;
45254;SDS011;30989;52.078;21.014;2023-02-22T15:33:15;5.78;;;2.58;;
45254;SDS011;30989;52.078;21.014;2023-02-22T15:35:42;8.32;;;2.42;;
45254;SDS011;30989;52.078;21.014;2023-02-22T15:40:37;6.25;;;2.65;;
45254;SDS011;30989;52.078;21.014;2023-02-22T15:43:20;6.10;;;2.53;;
45254;SDS011;30989;52.078;21.014;2023-02-22T15:45:48;4.38;;;2.05;;
45254;SDS011;30989;52.078;21.014;2023-02-22T15:48:15;5.68;;;2.33;;
45254;SDS011;30989;52.078;21.014;2023-02-22T15:51:01;6.13;;;2.83;;
45254;SDS011;30989;52.078;21.014;2023-02-22T15:53:33;10.40;;;3.30;;
45254;SDS011;30989;52.078;21.014;2023-02-22T15:56:08;7.38;;;3.22;;
45254;SDS011;30989;52.078;21.014;2023-02-22T15:58:36;7.07;;;2.97;;
45254;SDS011;30989;52.078;21.014;2023-02-22T16:01:10;9.90;;;2.67;;
45254;SDS011;30989;52.078;21.014;2023-02-22T16:03:43;5.25;;;2.53;;
45254;SDS011;30989;52.078;21.014;2023-02-22T16:06:13;6.43;;;2.83;;
45254;SDS011;30989;52.078;21.014;2023-02-22T16:08:52;7.90;;;2.42;;
45254;SDS011;30989;52.078;21.014;2023-02-22T16:11:23;7.63;;;3.20;;
45254;SDS011;30989;52.078;21.014;2023-02-22T16:13:58;5.10;;;2.55;;
45254;SDS011;30989;52.078;21.014;2023-02-22T16:16:35;6.90;;;3.00;;
45254;SDS011;30989;52.078;21.014;2023-02-22T16:22:03;7.60;;;3.25;;
45254;SDS011;30989;52.078;21.014;2023-02-22T16:24:33;6.68;;;2.75;;
45254;SDS011;30989;52.078;21.014;2023-02-22T16:27:00;9.18;;;3.47;;
45254;SDS011;30989;52.078;21.014;2023-02-22T16:29:28;7.45;;;2.90;;
45254;SDS011;30989;52.078;21.014;2023-02-22T16:31:54;6.22;;;2.75;;
45254;SDS011;30989;52.078;21.014;2023-02-22T16:34:20;6.22;;;2.85;;
45254;SDS011;30989;52.078;21.014;2023-02-22T16:36:47;6.25;;;3.35;;
45254;SDS011;30989;52.078;21.014;2023-02-22T16:39:21;10.48;;;3.28;;
45254;SDS011;30989;52.078;21.014;2023-02-22T16:41:51;8.55;;;3.25;;
45254;SDS011;30989;52.078;21.014;2023-02-22T16:44:18;7.93;;;3.42;;
45254;SDS011;30989;52.078;21.014;2023-02-22T16:46:44;6.45;;;2.83;;
45254;SDS011;30989;52.078;21.014;2023-02-22T16:49:10;7.80;;;3.00;;
45254;SDS011;30989;52.078;21.014;2023-02-22T16:51:46;10.70;;;3.03;;
45254;SDS011;30989;52.078;21.014;2023-02-22T16:54:38;6.30;;;2.72;;
45254;SDS011;30989;52.078;21.014;2023-02-22T16:57:09;9.10;;;2.72;;
45254;SDS011;30989;52.078;21.014;2023-02-22T16:59:41;23.60;;;5.63;;
45254;SDS011;30989;52.078;21.014;2023-02-22T17:02:10;6.03;;;2.65;;
45254;SDS011;30989;52.078;21.014;2023-02-22T17:04:39;5.82;;;2.58;;
45254;SDS011;30989;52.078;21.014;2023-02-22T17:07:07;4.40;;;2.38;;
45254;SDS011;30989;52.078;21.014;2023-02-22T17:09:34;6.07;;;3.03;;